sensor_id;sensor_type;location;lat;lon;timestamp;P1;durP1;ratioP1;P2;durP2;ratioP2
2041;SDS011;1026;51.460;7.252;2023-11-21T00:01:25;7.13;;;4.53;;
2041;SDS011;1026;51.460;7.252;2023-11-21T00:03:58;4.50;;;3.87;;
2041;SDS011;1026;51.460;7.252;2023-11-21T00:06:25;6.33;;;5.20;;
2041;SDS011;1026;51.460;7.252;2023-11-21T00:08:52;3.90;;;3.47;;
2041;SDS011;1026;51.460;7.252;2023-11-21T00:11:26;4.67;;;3.90;;
2041;SDS011;1026;51.460;7.252;2023-11-21T00:13:53;6.30;;;4.80;;
2041;SDS011;1026;51.460;7.252;2023-11-21T00:16:26;5.07;;;3.80;;
2041;SDS011;1026;51.460;7.252;2023-11-21T00:18:53;5.20;;;4.70;;
2041;SDS011;1026;51.460;7.252;2023-11-21T00:21:27;5.50;;;4.87;;
2041;SDS011;1026;51.460;7.252;2023-11-21T00:23:54;4.83;;;4.33;;
2041;SDS011;1026;51.460;7.252;2023-11-21T00:26:27;4.43;;;4.00;;
2041;SDS011;1026;51.460;7.252;2023-11-21T00:28:54;6.73;;;4.90;;
2041;SDS011;1026;51.460;7.252;2023-11-21T00:31:28;5.03;;;4.40;;
2041;SDS011;1026;51.460;7.252;2023-11-21T00:33:56;4.07;;;3.70;;
2041;SDS011;1026;51.460;7.252;2023-11-21T00:36:22;6.43;;;4.20;;
2041;SDS011;1026;51.460;7.252;2023-11-21T00:38:56;4.13;;;3.57;;
2041;SDS011;1026;51.460;7.252;2023-11-21T00:41:30;6.17;;;4.40;;
2041;SDS011;1026;51.460;7.252;2023-11-21T00:43:57;5.67;;;5.13;;
2041;SDS011;1026;51.460;7.252;2023-11-21T00:46:32;6.07;;;4.63;;
2041;SDS011;1026;51.460;7.252;2023-11-21T00:48:59;6.47;;;3.93;;
2041;SDS011;1026;51.460;7.252;2023-11-21T00:51:26;4.37;;;3.70;;
2041;SDS011;1026;51.460;7.252;2023-11-21T00:53:59;4.63;;;4.00;;
2041;SDS011;1026;51.460;7.252;2023-11-21T00:56:26;5.80;;;4.60;;
2041;SDS011;1026;51.460;7.252;2023-11-21T00:58:53;4.80;;;4.20;;
2041;SDS011;1026;51.460;7.252;2023-11-21T01:01:40;5.27;;;4.40;;
2041;SDS011;1026;51.460;7.252;2023-11-21T01:04:06;6.47;;;3.80;;
2041;SDS011;1026;51.460;7.252;2023-11-21T01:06:40;5.27;;;4.40;;
2041;SDS011;1026;51.460;7.252;2023-11-21T01:09:07;5.67;;;4.07;;
2041;SDS011;1026;51.460;7.252;2023-11-21T01:11:35;4.87;;;4.37;;
2041;SDS011;1026;51.460;7.252;2023-11-21T01:14:10;4.90;;;4.40;;
2041;SDS011;1026;51.460;7.252;2023-11-21T01:16:43;5.27;;;3.97;;
2041;SDS011;1026;51.460;7.252;2023-11-21T01:19:10;8.57;;;5.40;;
2041;SDS011;1026;51.460;7.252;2023-11-21T01:21:37;6.10;;;5.00;;
2041;SDS011;1026;51.460;7.252;2023-11-21T01:24:11;6.33;;;5.13;;
2041;SDS011;1026;51.460;7.252;2023-11-21T01:26:38;6.07;;;4.87;;
2041;SDS011;1026;51.460;7.252;2023-11-21T01:29:13;4.50;;;3.93;;
2041;SDS011;1026;51.460;7.252;2023-11-21T01:31:41;5.47;;;4.17;;
2041;SDS011;1026;51.460;7.252;2023-11-21T01:34:15;4.03;;;3.70;;
2041;SDS011;1026;51.460;7.252;2023-11-21T01:36:42;4.63;;;4.23;;
2041;SDS011;1026;51.460;7.252;2023-11-21T01:39:09;5.07;;;3.93;;
2041;SDS011;1026;51.460;7.252;2023-11-21T01:41:46;5.70;;;4.53;;
2041;SDS011;1026;51.460;7.252;2023-11-21T01:44:13;6.73;;;4.30;;
2041;SDS011;1026;51.460;7.252;2023-11-21T01:46:46;4.93;;;4.43;;
2041;SDS011;1026;51.460;7.252;2023-11-21T01:49:14;3.90;;;3.60;;
2041;SDS011;1026;51.460;7.252;2023-11-21T01:51:42;4.57;;;3.17;;
2041;SDS011;1026;51.460;7.252;2023-11-21T01:54:19;4.60;;;4.20;;
2041;SDS011;1026;51.460;7.252;2023-11-21T01:56:54;4.80;;;4.30;;
2041;SDS011;1026;51.460;7.252;2023-11-21T01:59:36;5.50;;;4.57;;
2041;SDS011;1026;51.460;7.252;2023-11-21T02:02:11;5.10;;;4.13;;
2041;SDS011;1026;51.460;7.252;2023-11-21T02:04:38;6.70;;;4.07;;
2041;SDS011;1026;51.460;7.252;2023-11-21T02:07:11;7.03;;;5.00;;
2041;SDS011;1026;51.460;7.252;2023-11-21T02:09:38;4.60;;;4.20;;
2041;SDS011;1026;51.460;7.252;2023-11-21T02:12:15;6.73;;;4.17;;
2041;SDS011;1026;51.460;7.252;2023-11-21T02:14:49;4.23;;;3.80;;
2041;SDS011;1026;51.460;7.252;2023-11-21T02:17:17;6.53;;;5.07;;
2041;SDS011;1026;51.460;7.252;2023-11-21T02:19:51;6.43;;;4.70;;
2041;SDS011;1026;51.460;7.252;2023-11-21T02:22:26;7.73;;;4.50;;
2041;SDS011;1026;51.460;7.252;2023-11-21T02:25:12;6.23;;;5.07;;
2041;SDS011;1026;51.460;7.252;2023-11-21T02:27:46;3.97;;;3.43;;
2041;SDS011;1026;51.460;7.252;2023-11-21T02:30:15;6.43;;;4.17;;
2041;SDS011;1026;51.460;7.252;2023-11-21T02:32:49;5.83;;;4.60;;
2041;SDS011;1026;51.460;7.252;2023-11-21T02:35:16;6.00;;;4.87;;
2041;SDS011;1026;51.460;7.252;2023-11-21T02:37:43;4.43;;;4.03;;
2041;SDS011;1026;51.460;7.252;2023-11-21T02:40:16;4.73;;;4.23;;
2041;SDS011;1026;51.460;7.252;2023-11-21T02:42:51;4.13;;;3.67;;
2041;SDS011;1026;51.460;7.252;2023-11-21T02:45:26;4.73;;;4.23;;
2041;SDS011;1026;51.460;7.252;2023-11-21T02:47:52;4.37;;;3.83;;
2041;SDS011;1026;51.460;7.252;2023-11-21T02:50:29;4.27;;;3.73;;
2041;SDS011;1026;51.460;7.252;2023-11-21T02:52:56;6.10;;;4.20;;
2041;SDS011;1026;51.460;7.252;2023-11-21T02:55:24;6.00;;;4.83;;
2041;SDS011;1026;51.460;7.252;2023-11-21T02:57:58;5.10;;;4.40;;
2041;SDS011;1026;51.460;7.252;2023-11-21T03:00:39;7.07;;;4.87;;
2041;SDS011;1026;51.460;7.252;2023-11-21T03:03:14;6.63;;;4.50;;
2041;SDS011;1026;51.460;7.252;2023-11-21T03:05:41;5.70;;;4.80;;
2041;SDS011;1026;51.460;7.252;2023-11-21T03:08:08;5.70;;;4.53;;
2041;SDS011;1026;51.460;7.252;2023-11-21T03:10:42;6.30;;;4.37;;
2041;SDS011;1026;51.460;7.252;2023-11-21T03:13:09;4.30;;;3.83;;
2041;SDS011;1026;51.460;7.252;2023-11-21T03:15:37;4.77;;;3.70;;
2041;SDS011;1026;51.460;7.252;2023-11-21T03:18:11;5.93;;;4.63;;
2041;SDS011;1026;51.460;7.252;2023-11-21T03:20:39;4.40;;;3.90;;
2041;SDS011;1026;51.460;7.252;2023-11-21T03:23:06;4.83;;;3.83;;
2041;SDS011;1026;51.460;7.252;2023-11-21T03:25:40;4.50;;;3.90;;
2041;SDS011;1026;51.460;7.252;2023-11-21T03:28:07;4.20;;;3.80;;
2041;SDS011;1026;51.460;7.252;2023-11-21T03:30:34;5.03;;;4.07;;
2041;SDS011;1026;51.460;7.252;2023-11-21T03:33:08;4.87;;;3.60;;
2041;SDS011;1026;51.460;7.252;2023-11-21T03:35:35;5.17;;;3.90;;
2041;SDS011;1026;51.460;7.252;2023-11-21T03:38:03;5.87;;;5.00;;
2041;SDS011;1026;51.460;7.252;2023-11-21T03:40:37;4.13;;;3.73;;
2041;SDS011;1026;51.460;7.252;2023-11-21T03:43:13;7.60;;;4.00;;
2041;SDS011;1026;51.460;7.252;2023-11-21T03:45:40;5.10;;;4.07;;
2041;SDS011;1026;51.460;7.252;2023-11-21T03:48:07;3.93;;;3.63;;
2041;SDS011;1026;51.460;7.252;2023-11-21T03:50:41;5.67;;;4.07;;
2041;SDS011;1026;51.460;7.252;2023-11-21T03:53:15;4.73;;;3.70;;
2041;SDS011;1026;51.460;7.252;2023-11-21T03:55:42;4.80;;;3.87;;
2041;SDS011;1026;51.460;7.252;2023-11-21T03:58:09;7.80;;;4.30;;
2041;SDS011;1026;51.460;7.252;2023-11-21T04:00:42;5.87;;;4.33;;
2041;SDS011;1026;51.460;7.252;2023-11-21T04:03:16;7.30;;;4.40;;
2041;SDS011;1026;51.460;7.252;2023-11-21T04:05:44;4.13;;;3.63;;
2041;SDS011;1026;51.460;7.252;2023-11-21T04:08:12;6.07;;;5.17;;
2041;SDS011;1026;51.460;7.252;2023-11-21T04:10:46;4.20;;;3.60;;
2041;SDS011;1026;51.460;7.252;2023-11-21T04:13:13;5.07;;;4.57;;
2041;SDS011;1026;51.460;7.252;2023-11-21T04:15:46;5.30;;;4.23;;
2041;SDS011;1026;51.460;7.252;2023-11-21T04:18:19;6.40;;;3.83;;
2041;SDS011;1026;51.460;7.252;2023-11-21T04:20:48;4.83;;;4.33;;
2041;SDS011;1026;51.460;7.252;2023-11-21T04:23:15;3.47;;;3.17;;
2041;SDS011;1026;51.460;7.252;2023-11-21T04:25:48;5.83;;;5.03;;
2041;SDS011;1026;51.460;7.252;2023-11-21T04:28:15;5.10;;;3.30;;
2041;SDS011;1026;51.460;7.252;2023-11-21T04:30:42;6.53;;;3.83;;
2041;SDS011;1026;51.460;7.252;2023-11-21T04:33:15;4.97;;;4.10;;
2041;SDS011;1026;51.460;7.252;2023-11-21T04:35:49;4.10;;;3.80;;
2041;SDS011;1026;51.460;7.252;2023-11-21T04:38:16;4.30;;;3.77;;
2041;SDS011;1026;51.460;7.252;2023-11-21T04:40:43;4.33;;;3.93;;
2041;SDS011;1026;51.460;7.252;2023-11-21T04:43:16;4.47;;;3.80;;
2041;SDS011;1026;51.460;7.252;2023-11-21T04:45:43;4.97;;;4.30;;
2041;SDS011;1026;51.460;7.252;2023-11-21T04:48:10;5.00;;;4.00;;
2041;SDS011;1026;51.460;7.252;2023-11-21T04:50:43;4.53;;;4.13;;
2041;SDS011;1026;51.460;7.252;2023-11-21T04:53:23;7.03;;;3.87;;
2041;SDS011;1026;51.460;7.252;2023-11-21T04:55:50;5.20;;;4.60;;
2041;SDS011;1026;51.460;7.252;2023-11-21T04:58:23;5.60;;;4.40;;
2041;SDS011;1026;51.460;7.252;2023-11-21T05:01:15;4.70;;;3.67;;
2041;SDS011;1026;51.460;7.252;2023-11-21T05:03:48;7.53;;;4.33;;
2041;SDS011;1026;51.460;7.252;2023-11-21T05:06:15;4.60;;;4.07;;
2041;SDS011;1026;51.460;7.252;2023-11-21T05:08:49;4.43;;;4.00;;
2041;SDS011;1026;51.460;7.252;2023-11-21T05:11:23;4.20;;;3.80;;
2041;SDS011;1026;51.460;7.252;2023-11-21T05:14:00;4.60;;;4.07;;
2041;SDS011;1026;51.460;7.252;2023-11-21T05:16:28;5.93;;;3.23;;
2041;SDS011;1026;51.460;7.252;2023-11-21T05:18:55;6.10;;;5.17;;
2041;SDS011;1026;51.460;7.252;2023-11-21T05:21:33;4.60;;;3.53;;
2041;SDS011;1026;51.460;7.252;2023-11-21T05:24:00;5.17;;;3.90;;
2041;SDS011;1026;51.460;7.252;2023-11-21T05:26:33;4.97;;;4.00;;
2041;SDS011;1026;51.460;7.252;2023-11-21T05:29:00;5.83;;;4.20;;
2041;SDS011;1026;51.460;7.252;2023-11-21T05:31:27;3.90;;;3.47;;
2041;SDS011;1026;51.460;7.252;2023-11-21T05:34:00;4.50;;;3.80;;
2041;SDS011;1026;51.460;7.252;2023-11-21T05:36:33;4.60;;;4.20;;
2041;SDS011;1026;51.460;7.252;2023-11-21T05:39:00;4.23;;;3.70;;
2041;SDS011;1026;51.460;7.252;2023-11-21T05:41:33;6.23;;;4.70;;
2041;SDS011;1026;51.460;7.252;2023-11-21T05:44:00;4.40;;;3.50;;
2041;SDS011;1026;51.460;7.252;2023-11-21T05:46:28;4.40;;;4.00;;
2041;SDS011;1026;51.460;7.252;2023-11-21T05:49:02;4.63;;;3.73;;
2041;SDS011;1026;51.460;7.252;2023-11-21T05:51:37;5.77;;;4.23;;
2041;SDS011;1026;51.460;7.252;2023-11-21T05:54:05;4.10;;;3.70;;
2041;SDS011;1026;51.460;7.252;2023-11-21T05:56:38;5.17;;;4.00;;
2041;SDS011;1026;51.460;7.252;2023-11-21T05:59:05;6.90;;;4.80;;
2041;SDS011;1026;51.460;7.252;2023-11-21T06:02:10;5.93;;;5.23;;
2041;SDS011;1026;51.460;7.252;2023-11-21T06:04:44;5.07;;;4.17;;
2041;SDS011;1026;51.460;7.252;2023-11-21T06:07:17;5.23;;;4.73;;
2041;SDS011;1026;51.460;7.252;2023-11-21T06:09:46;4.80;;;4.30;;
2041;SDS011;1026;51.460;7.252;2023-11-21T06:12:21;4.60;;;4.20;;
2041;SDS011;1026;51.460;7.252;2023-11-21T06:14:55;4.63;;;3.63;;
2041;SDS011;1026;51.460;7.252;2023-11-21T06:17:22;6.40;;;3.90;;
2041;SDS011;1026;51.460;7.252;2023-11-21T06:19:57;4.77;;;3.83;;
2041;SDS011;1026;51.460;7.252;2023-11-21T06:22:24;5.67;;;3.77;;
2041;SDS011;1026;51.460;7.252;2023-11-21T06:24:52;5.53;;;4.40;;
2041;SDS011;1026;51.460;7.252;2023-11-21T06:27:25;5.97;;;4.57;;
2041;SDS011;1026;51.460;7.252;2023-11-21T06:29:52;5.57;;;4.97;;
2041;SDS011;1026;51.460;7.252;2023-11-21T06:32:19;6.07;;;4.33;;
2041;SDS011;1026;51.460;7.252;2023-11-21T06:34:56;10.60;;;4.07;;
2041;SDS011;1026;51.460;7.252;2023-11-21T06:37:32;5.60;;;4.47;;
2041;SDS011;1026;51.460;7.252;2023-11-21T06:39:59;4.20;;;3.50;;
2041;SDS011;1026;51.460;7.252;2023-11-21T06:42:27;5.53;;;3.80;;
2041;SDS011;1026;51.460;7.252;2023-11-21T06:45:01;5.30;;;4.80;;
2041;SDS011;1026;51.460;7.252;2023-11-21T06:47:30;5.00;;;4.20;;
2041;SDS011;1026;51.460;7.252;2023-11-21T06:50:04;5.00;;;4.50;;
2041;SDS011;1026;51.460;7.252;2023-11-21T06:52:31;5.50;;;4.43;;
2041;SDS011;1026;51.460;7.252;2023-11-21T06:55:04;7.40;;;4.63;;
2041;SDS011;1026;51.460;7.252;2023-11-21T06:57:40;7.53;;;4.50;;
2041;SDS011;1026;51.460;7.252;2023-11-21T07:00:21;5.57;;;4.73;;
2041;SDS011;1026;51.460;7.252;2023-11-21T07:02:55;5.93;;;4.60;;
2041;SDS011;1026;51.460;7.252;2023-11-21T07:05:29;6.70;;;5.30;;
2041;SDS011;1026;51.460;7.252;2023-11-21T07:07:57;4.47;;;4.07;;
2041;SDS011;1026;51.460;7.252;2023-11-21T07:10:49;6.27;;;5.03;;
2041;SDS011;1026;51.460;7.252;2023-11-21T07:13:16;6.13;;;3.77;;
2041;SDS011;1026;51.460;7.252;2023-11-21T07:15:44;4.70;;;3.97;;
2041;SDS011;1026;51.460;7.252;2023-11-21T07:18:38;5.30;;;4.67;;
2041;SDS011;1026;51.460;7.252;2023-11-21T07:21:06;8.53;;;5.03;;
2041;SDS011;1026;51.460;7.252;2023-11-21T07:23:41;4.23;;;3.83;;
2041;SDS011;1026;51.460;7.252;2023-11-21T07:26:08;7.90;;;4.47;;
2041;SDS011;1026;51.460;7.252;2023-11-21T07:28:43;8.73;;;4.60;;
2041;SDS011;1026;51.460;7.252;2023-11-21T07:31:10;6.13;;;4.47;;
2041;SDS011;1026;51.460;7.252;2023-11-21T07:33:40;5.13;;;4.13;;
2041;SDS011;1026;51.460;7.252;2023-11-21T07:36:34;4.90;;;4.40;;
2041;SDS011;1026;51.460;7.252;2023-11-21T07:39:02;5.23;;;4.40;;
2041;SDS011;1026;51.460;7.252;2023-11-21T07:41:35;4.77;;;4.33;;
2041;SDS011;1026;51.460;7.252;2023-11-21T07:44:04;9.70;;;6.40;;
2041;SDS011;1026;51.460;7.252;2023-11-21T07:46:38;5.87;;;4.77;;
2041;SDS011;1026;51.460;7.252;2023-11-21T07:49:07;5.80;;;4.60;;
2041;SDS011;1026;51.460;7.252;2023-11-21T07:51:34;7.67;;;6.13;;
2041;SDS011;1026;51.460;7.252;2023-11-21T07:54:07;8.00;;;5.80;;
2041;SDS011;1026;51.460;7.252;2023-11-21T07:56:40;7.90;;;6.30;;
2041;SDS011;1026;51.460;7.252;2023-11-21T07:59:08;12.87;;;9.73;;
2041;SDS011;1026;51.460;7.252;2023-11-21T08:01:56;9.57;;;7.13;;
2041;SDS011;1026;51.460;7.252;2023-11-21T08:04:23;11.70;;;8.00;;
2041;SDS011;1026;51.460;7.252;2023-11-21T08:07:00;12.87;;;8.17;;
2041;SDS011;1026;51.460;7.252;2023-11-21T08:09:27;11.33;;;8.27;;
2041;SDS011;1026;51.460;7.252;2023-11-21T08:11:54;11.33;;;8.40;;
2041;SDS011;1026;51.460;7.252;2023-11-21T08:14:27;10.93;;;8.17;;
2041;SDS011;1026;51.460;7.252;2023-11-21T08:17:06;10.40;;;7.20;;
2041;SDS011;1026;51.460;7.252;2023-11-21T08:19:40;11.83;;;6.90;;
2041;SDS011;1026;51.460;7.252;2023-11-21T08:22:16;9.63;;;7.60;;
2041;SDS011;1026;51.460;7.252;2023-11-21T08:24:50;11.27;;;8.20;;
2041;SDS011;1026;51.460;7.252;2023-11-21T08:27:18;10.13;;;7.47;;
2041;SDS011;1026;51.460;7.252;2023-11-21T08:29:45;7.80;;;6.67;;
2041;SDS011;1026;51.460;7.252;2023-11-21T08:32:19;10.10;;;7.73;;
2041;SDS011;1026;51.460;7.252;2023-11-21T08:34:46;9.40;;;7.03;;
2041;SDS011;1026;51.460;7.252;2023-11-21T08:37:18;11.13;;;7.43;;
2041;SDS011;1026;51.460;7.252;2023-11-21T08:39:53;8.53;;;7.13;;
2041;SDS011;1026;51.460;7.252;2023-11-21T08:42:20;8.80;;;7.37;;
2041;SDS011;1026;51.460;7.252;2023-11-21T08:44:55;10.23;;;7.00;;
2041;SDS011;1026;51.460;7.252;2023-11-21T08:47:25;10.37;;;8.03;;
2041;SDS011;1026;51.460;7.252;2023-11-21T08:50:00;7.43;;;6.40;;
2041;SDS011;1026;51.460;7.252;2023-11-21T08:52:27;10.00;;;7.63;;
2041;SDS011;1026;51.460;7.252;2023-11-21T08:54:54;11.53;;;8.13;;
2041;SDS011;1026;51.460;7.252;2023-11-21T08:57:39;11.37;;;7.50;;
2041;SDS011;1026;51.460;7.252;2023-11-21T09:00:45;17.27;;;9.90;;
2041;SDS011;1026;51.460;7.252;2023-11-21T09:03:19;12.53;;;8.70;;
2041;SDS011;1026;51.460;7.252;2023-11-21T09:05:53;12.30;;;8.40;;
2041;SDS011;1026;51.460;7.252;2023-11-21T09:08:21;11.60;;;8.40;;
2041;SDS011;1026;51.460;7.252;2023-11-21T09:10:49;11.83;;;8.83;;
2041;SDS011;1026;51.460;7.252;2023-11-21T09:13:22;11.07;;;8.03;;
2041;SDS011;1026;51.460;7.252;2023-11-21T09:15:51;15.33;;;10.37;;
2041;SDS011;1026;51.460;7.252;2023-11-21T09:18:25;11.50;;;8.53;;
2041;SDS011;1026;51.460;7.252;2023-11-21T09:20:52;22.80;;;11.70;;
2041;SDS011;1026;51.460;7.252;2023-11-21T09:23:47;24.60;;;14.73;;
2041;SDS011;1026;51.460;7.252;2023-11-21T09:26:23;29.30;;;17.17;;
2041;SDS011;1026;51.460;7.252;2023-11-21T09:28:57;34.30;;;18.80;;
2041;SDS011;1026;51.460;7.252;2023-11-21T09:31:24;39.17;;;19.63;;
2041;SDS011;1026;51.460;7.252;2023-11-21T09:33:57;38.67;;;19.60;;
2041;SDS011;1026;51.460;7.252;2023-11-21T09:36:24;41.10;;;22.27;;
2041;SDS011;1026;51.460;7.252;2023-11-21T09:39:00;40.53;;;21.57;;
2041;SDS011;1026;51.460;7.252;2023-11-21T09:41:34;42.63;;;20.60;;
2041;SDS011;1026;51.460;7.252;2023-11-21T09:44:18;44.23;;;21.00;;
2041;SDS011;1026;51.460;7.252;2023-11-21T09:46:53;32.50;;;20.43;;
2041;SDS011;1026;51.460;7.252;2023-11-21T09:49:28;37.23;;;21.27;;
2041;SDS011;1026;51.460;7.252;2023-11-21T09:52:01;37.90;;;20.50;;
2041;SDS011;1026;51.460;7.252;2023-11-21T09:54:35;34.90;;;20.07;;
2041;SDS011;1026;51.460;7.252;2023-11-21T09:57:03;38.07;;;19.20;;
2041;SDS011;1026;51.460;7.252;2023-11-21T09:59:32;34.70;;;18.63;;
2041;SDS011;1026;51.460;7.252;2023-11-21T10:02:05;37.93;;;20.47;;
2041;SDS011;1026;51.460;7.252;2023-11-21T10:04:46;36.77;;;19.90;;
2041;SDS011;1026;51.460;7.252;2023-11-21T10:07:13;32.30;;;17.40;;
2041;SDS011;1026;51.460;7.252;2023-11-21T10:10:27;33.70;;;19.90;;
2041;SDS011;1026;51.460;7.252;2023-11-21T10:13:13;27.90;;;18.30;;
2041;SDS011;1026;51.460;7.252;2023-11-21T10:16:14;35.20;;;16.97;;
2041;SDS011;1026;51.460;7.252;2023-11-21T10:19:15;29.83;;;16.20;;
2041;SDS011;1026;51.460;7.252;2023-11-21T10:21:50;25.73;;;18.20;;
2041;SDS011;1026;51.460;7.252;2023-11-21T10:24:20;29.47;;;16.37;;
2041;SDS011;1026;51.460;7.252;2023-11-21T10:27:16;28.27;;;17.47;;
2041;SDS011;1026;51.460;7.252;2023-11-21T10:29:43;32.10;;;16.70;;
2041;SDS011;1026;51.460;7.252;2023-11-21T10:32:16;29.83;;;15.63;;
2041;SDS011;1026;51.460;7.252;2023-11-21T10:34:55;24.30;;;15.90;;
2041;SDS011;1026;51.460;7.252;2023-11-21T10:37:29;31.93;;;16.93;;
2041;SDS011;1026;51.460;7.252;2023-11-21T10:39:58;31.27;;;19.40;;
2041;SDS011;1026;51.460;7.252;2023-11-21T10:42:32;30.77;;;16.53;;
2041;SDS011;1026;51.460;7.252;2023-11-21T10:45:07;33.37;;;17.10;;
2041;SDS011;1026;51.460;7.252;2023-11-21T10:47:41;28.37;;;16.43;;
2041;SDS011;1026;51.460;7.252;2023-11-21T10:50:18;26.37;;;16.27;;
2041;SDS011;1026;51.460;7.252;2023-11-21T10:52:45;24.57;;;15.27;;
2041;SDS011;1026;51.460;7.252;2023-11-21T10:55:19;29.40;;;17.40;;
2041;SDS011;1026;51.460;7.252;2023-11-21T10:57:54;20.77;;;14.07;;
2041;SDS011;1026;51.460;7.252;2023-11-21T11:00:37;24.20;;;16.23;;
2041;SDS011;1026;51.460;7.252;2023-11-21T11:03:12;23.00;;;15.40;;
2041;SDS011;1026;51.460;7.252;2023-11-21T11:05:49;25.20;;;14.67;;
2041;SDS011;1026;51.460;7.252;2023-11-21T11:08:44;24.53;;;14.90;;
2041;SDS011;1026;51.460;7.252;2023-11-21T11:11:19;28.07;;;14.67;;
2041;SDS011;1026;51.460;7.252;2023-11-21T11:13:53;21.87;;;14.70;;
2041;SDS011;1026;51.460;7.252;2023-11-21T11:16:21;25.60;;;15.27;;
2041;SDS011;1026;51.460;7.252;2023-11-21T11:19:16;21.97;;;13.40;;
2041;SDS011;1026;51.460;7.252;2023-11-21T11:28:35;20.53;;;14.73;;
2041;SDS011;1026;51.460;7.252;2023-11-21T11:31:39;17.23;;;11.37;;
2041;SDS011;1026;51.460;7.252;2023-11-21T11:34:44;24.13;;;14.93;;
2041;SDS011;1026;51.460;7.252;2023-11-21T11:37:23;20.70;;;13.70;;
2041;SDS011;1026;51.460;7.252;2023-11-21T11:39:57;23.57;;;14.50;;
2041;SDS011;1026;51.460;7.252;2023-11-21T11:43:00;24.40;;;14.40;;
2041;SDS011;1026;51.460;7.252;2023-11-21T11:45:37;24.43;;;14.90;;
2041;SDS011;1026;51.460;7.252;2023-11-21T11:48:08;24.17;;;14.47;;
2041;SDS011;1026;51.460;7.252;2023-11-21T11:51:14;26.63;;;14.60;;
2041;SDS011;1026;51.460;7.252;2023-11-21T11:54:10;25.53;;;15.03;;
2041;SDS011;1026;51.460;7.252;2023-11-21T11:56:42;27.47;;;14.27;;
2041;SDS011;1026;51.460;7.252;2023-11-21T11:59:24;20.73;;;13.30;;
2041;SDS011;1026;51.460;7.252;2023-11-21T12:02:04;26.40;;;13.47;;
2041;SDS011;1026;51.460;7.252;2023-11-21T12:05:00;25.60;;;14.03;;
2041;SDS011;1026;51.460;7.252;2023-11-21T12:10:38;22.47;;;12.97;;
2041;SDS011;1026;51.460;7.252;2023-11-21T12:13:06;23.07;;;13.30;;
2041;SDS011;1026;51.460;7.252;2023-11-21T12:15:42;24.33;;;13.87;;
2041;SDS011;1026;51.460;7.252;2023-11-21T12:18:09;22.13;;;13.83;;
2041;SDS011;1026;51.460;7.252;2023-11-21T12:20:37;22.53;;;13.77;;
2041;SDS011;1026;51.460;7.252;2023-11-21T12:23:20;25.87;;;14.20;;
2041;SDS011;1026;51.460;7.252;2023-11-21T12:25:47;23.40;;;13.67;;
2041;SDS011;1026;51.460;7.252;2023-11-21T12:28:21;19.70;;;13.80;;
2041;SDS011;1026;51.460;7.252;2023-11-21T12:30:49;20.80;;;12.07;;
2041;SDS011;1026;51.460;7.252;2023-11-21T12:33:39;23.23;;;14.10;;
2041;SDS011;1026;51.460;7.252;2023-11-21T12:36:07;20.40;;;12.70;;
2041;SDS011;1026;51.460;7.252;2023-11-21T12:38:44;15.47;;;12.03;;
2041;SDS011;1026;51.460;7.252;2023-11-21T12:41:11;22.13;;;12.80;;
2041;SDS011;1026;51.460;7.252;2023-11-21T12:43:38;24.57;;;13.33;;
2041;SDS011;1026;51.460;7.252;2023-11-21T12:46:13;19.20;;;11.80;;
2041;SDS011;1026;51.460;7.252;2023-11-21T12:48:42;23.73;;;14.30;;
2041;SDS011;1026;51.460;7.252;2023-11-21T12:51:43;20.80;;;12.27;;
2041;SDS011;1026;51.460;7.252;2023-11-21T12:54:12;22.40;;;13.07;;
2041;SDS011;1026;51.460;7.252;2023-11-21T13:03:24;15.70;;;11.60;;
2041;SDS011;1026;51.460;7.252;2023-11-21T13:05:59;18.33;;;11.87;;
2041;SDS011;1026;51.460;7.252;2023-11-21T13:08:34;15.53;;;11.97;;
2041;SDS011;1026;51.460;7.252;2023-11-21T13:11:05;20.43;;;12.93;;
2041;SDS011;1026;51.460;7.252;2023-11-21T13:13:40;15.57;;;11.17;;
2041;SDS011;1026;51.460;7.252;2023-11-21T13:16:09;17.17;;;10.70;;
2041;SDS011;1026;51.460;7.252;2023-11-21T13:18:42;16.93;;;11.60;;
2041;SDS011;1026;51.460;7.252;2023-11-21T13:21:10;20.57;;;10.63;;
2041;SDS011;1026;51.460;7.252;2023-11-21T13:24:07;17.73;;;11.50;;
2041;SDS011;1026;51.460;7.252;2023-11-21T13:26:36;20.50;;;11.70;;
2041;SDS011;1026;51.460;7.252;2023-11-21T13:29:10;17.20;;;10.93;;
2041;SDS011;1026;51.460;7.252;2023-11-21T13:31:39;15.40;;;10.43;;
2041;SDS011;1026;51.460;7.252;2023-11-21T13:34:06;15.17;;;11.63;;
2041;SDS011;1026;51.460;7.252;2023-11-21T13:36:46;13.40;;;11.23;;
2041;SDS011;1026;51.460;7.252;2023-11-21T13:39:14;14.17;;;10.20;;
2041;SDS011;1026;51.460;7.252;2023-11-21T13:41:50;14.53;;;10.33;;
2041;SDS011;1026;51.460;7.252;2023-11-21T13:44:21;15.43;;;11.07;;
2041;SDS011;1026;51.460;7.252;2023-11-21T13:47:07;18.97;;;11.07;;
2041;SDS011;1026;51.460;7.252;2023-11-21T13:49:35;13.43;;;9.23;;
2041;SDS011;1026;51.460;7.252;2023-11-21T13:52:14;14.40;;;10.60;;
2041;SDS011;1026;51.460;7.252;2023-11-21T13:54:43;14.77;;;9.97;;
2041;SDS011;1026;51.460;7.252;2023-11-21T13:57:10;15.27;;;9.77;;
2041;SDS011;1026;51.460;7.252;2023-11-21T13:59:50;15.43;;;10.00;;
2041;SDS011;1026;51.460;7.252;2023-11-21T14:02:18;14.07;;;10.10;;
2041;SDS011;1026;51.460;7.252;2023-11-21T14:05:13;17.40;;;10.40;;
2041;SDS011;1026;51.460;7.252;2023-11-21T14:07:41;15.70;;;10.90;;
2041;SDS011;1026;51.460;7.252;2023-11-21T14:10:21;15.23;;;9.40;;
2041;SDS011;1026;51.460;7.252;2023-11-21T14:12:50;12.60;;;8.80;;
2041;SDS011;1026;51.460;7.252;2023-11-21T14:15:25;15.17;;;10.37;;
2041;SDS011;1026;51.460;7.252;2023-11-21T14:17:52;11.80;;;10.10;;
2041;SDS011;1026;51.460;7.252;2023-11-21T14:20:26;12.90;;;10.87;;
2041;SDS011;1026;51.460;7.252;2023-11-21T14:22:53;14.70;;;10.43;;
2041;SDS011;1026;51.460;7.252;2023-11-21T14:25:27;15.43;;;9.80;;
2041;SDS011;1026;51.460;7.252;2023-11-21T14:30:48;14.60;;;10.30;;
2041;SDS011;1026;51.460;7.252;2023-11-21T14:33:21;14.47;;;10.00;;
2041;SDS011;1026;51.460;7.252;2023-11-21T14:35:55;13.23;;;9.93;;
2041;SDS011;1026;51.460;7.252;2023-11-21T14:38:23;13.80;;;9.70;;
2041;SDS011;1026;51.460;7.252;2023-11-21T14:40:57;11.87;;;8.30;;
2041;SDS011;1026;51.460;7.252;2023-11-21T14:43:24;14.73;;;8.83;;
2041;SDS011;1026;51.460;7.252;2023-11-21T14:45:59;14.17;;;9.80;;
2041;SDS011;1026;51.460;7.252;2023-11-21T14:48:26;11.20;;;8.80;;
2041;SDS011;1026;51.460;7.252;2023-11-21T14:51:16;10.47;;;8.40;;
2041;SDS011;1026;51.460;7.252;2023-11-21T14:53:57;11.33;;;8.20;;
2041;SDS011;1026;51.460;7.252;2023-11-21T14:56:44;11.30;;;8.60;;
2041;SDS011;1026;51.460;7.252;2023-11-21T14:59:12;11.50;;;8.90;;
2041;SDS011;1026;51.460;7.252;2023-11-21T15:01:59;12.53;;;8.43;;
2041;SDS011;1026;51.460;7.252;2023-11-21T15:04:41;10.80;;;8.60;;
2041;SDS011;1026;51.460;7.252;2023-11-21T15:07:16;11.20;;;7.87;;
2041;SDS011;1026;51.460;7.252;2023-11-21T15:09:43;12.40;;;8.90;;
2041;SDS011;1026;51.460;7.252;2023-11-21T15:12:11;9.77;;;7.70;;
2041;SDS011;1026;51.460;7.252;2023-11-21T15:15:09;9.37;;;6.37;;
2041;SDS011;1026;51.460;7.252;2023-11-21T15:17:43;10.83;;;7.23;;
2041;SDS011;1026;51.460;7.252;2023-11-21T15:20:17;11.50;;;8.30;;
2041;SDS011;1026;51.460;7.252;2023-11-21T15:22:52;8.70;;;7.50;;
2041;SDS011;1026;51.460;7.252;2023-11-21T15:25:31;9.77;;;7.70;;
2041;SDS011;1026;51.460;7.252;2023-11-21T15:27:58;11.80;;;6.90;;
2041;SDS011;1026;51.460;7.252;2023-11-21T15:30:33;7.70;;;6.90;;
2041;SDS011;1026;51.460;7.252;2023-11-21T15:33:08;7.70;;;5.70;;
2041;SDS011;1026;51.460;7.252;2023-11-21T15:38:49;6.80;;;5.10;;
2041;SDS011;1026;51.460;7.252;2023-11-21T15:41:15;8.27;;;5.80;;
2041;SDS011;1026;51.460;7.252;2023-11-21T15:43:43;7.90;;;6.43;;
2041;SDS011;1026;51.460;7.252;2023-11-21T15:46:17;8.70;;;6.57;;
2041;SDS011;1026;51.460;7.252;2023-11-21T15:48:44;7.97;;;6.40;;
2041;SDS011;1026;51.460;7.252;2023-11-21T15:51:26;9.90;;;6.80;;
2041;SDS011;1026;51.460;7.252;2023-11-21T15:54:04;8.63;;;6.73;;
2041;SDS011;1026;51.460;7.252;2023-11-21T15:56:39;7.83;;;5.63;;
2041;SDS011;1026;51.460;7.252;2023-11-21T15:59:11;8.13;;;7.03;;
2041;SDS011;1026;51.460;7.252;2023-11-21T16:01:59;7.70;;;5.37;;
2041;SDS011;1026;51.460;7.252;2023-11-21T16:04:27;8.17;;;5.80;;
2041;SDS011;1026;51.460;7.252;2023-11-21T16:07:01;10.57;;;8.20;;